Catalpa, Virginia
Current Conditions -  °F | °C
As of 10:55 PM on Sunday 21 Dec 2014 (Local Time) from KCJR Reporting Station
Clear Clear  
Wind Chill: 25°   Ceiling: Unl
Heat Index: 25°   Visibility: 7mi
Dew Point: 25°   Wind: 3mph
Humidity: 100%   Direction: 20°NNE
Pressure: 30.32"   Gusts: NA
Location:  38.467°N, 77.9818°W
Report Text: KCJR 220355Z AUTO 02003KT 7SM CLR M04/M04 A3032 RMK AO2
Loading
Personal Weather Stations






























Interactive Weather Map New forecast layout! Learn more

10-Day Weather Forecast

Advertisements
Track Severe Weather on mobile